createdAt,value
2022-12-01T00:00:05.000Z,96727
2022-12-01T00:05:03.000Z,96727
2022-12-01T00:10:03.000Z,96718
2022-12-01T00:15:04.000Z,96721
2022-12-01T00:20:04.000Z,96712
2022-12-01T00:25:06.000Z,96718
2022-12-01T00:30:06.000Z,96703
2022-12-01T00:35:04.000Z,96710
2022-12-01T00:40:03.000Z,96710
2022-12-01T00:45:06.000Z,96714
2022-12-01T00:50:06.000Z,96718
2022-12-01T00:55:06.000Z,96720
2022-12-01T01:00:04.000Z,96729
2022-12-01T01:05:03.000Z,96728
2022-12-01T01:10:03.000Z,96727
2022-12-01T01:15:06.000Z,96726
2022-12-01T01:20:06.000Z,96721
2022-12-01T01:25:05.000Z,96727
2022-12-01T01:30:05.000Z,96732
2022-12-01T01:35:02.000Z,96726
2022-12-01T01:40:05.000Z,96728
2022-12-01T01:45:06.000Z,96737
2022-12-01T01:50:04.000Z,96730
2022-12-01T01:55:06.000Z,96741
2022-12-01T02:00:05.000Z,96738
2022-12-01T02:05:02.000Z,96735
2022-12-01T02:10:05.000Z,96731
2022-12-01T02:15:05.000Z,96733
2022-12-01T02:20:06.000Z,96729
2022-12-01T02:25:07.000Z,96730
2022-12-01T02:30:04.000Z,96712
2022-12-01T02:35:06.000Z,96713
2022-12-01T02:40:04.000Z,96704
2022-12-01T02:45:07.000Z,96718
2022-12-01T02:50:05.000Z,96714
2022-12-01T02:55:02.000Z,96718
2022-12-01T03:00:05.000Z,96720
2022-12-01T03:05:05.000Z,96721
2022-12-01T03:10:06.000Z,96713
2022-12-01T03:15:06.000Z,96713
2022-12-01T03:20:06.000Z,96709
2022-12-01T03:25:03.000Z,96714
2022-12-01T03:30:02.000Z,96714
2022-12-01T03:35:03.000Z,96696
2022-12-01T03:40:06.000Z,96707
2022-12-01T03:45:03.000Z,96716
2022-12-01T03:50:04.000Z,96708
2022-12-01T03:55:04.000Z,96702
2022-12-01T04:00:04.000Z,96713
2022-12-01T04:05:06.000Z,96715
2022-12-01T04:10:04.000Z,96710
2022-12-01T04:15:05.000Z,96722
2022-12-01T04:20:04.000Z,96709
2022-12-01T04:25:04.000Z,96717
2022-12-01T04:30:04.000Z,96711
2022-12-01T04:35:04.000Z,96731
2022-12-01T04:40:06.000Z,96722
2022-12-01T04:45:06.000Z,96724
2022-12-01T04:50:05.000Z,96725
2022-12-01T04:55:04.000Z,96739
2022-12-01T05:00:04.000Z,96728
2022-12-01T05:05:04.000Z,96738
2022-12-01T05:10:05.000Z,96725
2022-12-01T05:15:03.000Z,96730
2022-12-01T05:20:04.000Z,96742
2022-12-01T05:25:05.000Z,96732
2022-12-01T05:30:04.000Z,96740
2022-12-01T05:35:03.000Z,96740
2022-12-01T05:40:06.000Z,96733
2022-12-01T05:45:06.000Z,96743
2022-12-01T05:50:04.000Z,96744
2022-12-01T05:55:07.000Z,96746
2022-12-01T06:00:06.000Z,96742
2022-12-01T06:05:04.000Z,96737
2022-12-01T06:10:06.000Z,96746
2022-12-01T06:15:06.000Z,96743
2022-12-01T06:20:04.000Z,96745
2022-12-01T06:25:03.000Z,96752
2022-12-01T06:30:07.000Z,96755
2022-12-01T06:35:03.000Z,96744
2022-12-01T06:40:05.000Z,96756
2022-12-01T06:45:04.000Z,96763
2022-12-01T06:50:05.000Z,96759
2022-12-01T06:55:03.000Z,96762
2022-12-01T07:00:07.000Z,96768
2022-12-01T07:05:03.000Z,96764
2022-12-01T07:10:06.000Z,96771
2022-12-01T07:15:03.000Z,96771
2022-12-01T07:20:06.000Z,96774
2022-12-01T07:25:04.000Z,96779
2022-12-01T07:30:03.000Z,96779
2022-12-01T07:35:06.000Z,96777
2022-12-01T07:40:04.000Z,96778
2022-12-01T07:45:06.000Z,96792
2022-12-01T07:50:04.000Z,96796
2022-12-01T07:55:05.000Z,96801
2022-12-01T08:00:06.000Z,96799
2022-12-01T08:05:07.000Z,96797
2022-12-01T08:10:03.000Z,96794
2022-12-01T08:15:05.000Z,96792
2022-12-01T08:20:07.000Z,96795
2022-12-01T08:25:06.000Z,96800
2022-12-01T08:30:06.000Z,96803
2022-12-01T08:35:05.000Z,96798
2022-12-01T08:40:04.000Z,96797
2022-12-01T08:45:06.000Z,96800
2022-12-01T08:50:06.000Z,96794
2022-12-01T08:55:04.000Z,96800
2022-12-01T09:00:04.000Z,96800
2022-12-01T09:05:06.000Z,96801
2022-12-01T09:10:04.000Z,96806
2022-12-01T09:15:05.000Z,96811
2022-12-01T09:20:04.000Z,96804
2022-12-01T09:25:03.000Z,96812
2022-12-01T09:30:06.000Z,96812
2022-12-01T09:35:07.000Z,96808
2022-12-01T09:40:03.000Z,96817
2022-12-01T09:45:05.000Z,96817
2022-12-01T09:50:04.000Z,96819
2022-12-01T09:55:04.000Z,96817
2022-12-01T10:00:06.000Z,96813
2022-12-01T10:05:05.000Z,96815
2022-12-01T10:10:04.000Z,96809
2022-12-01T10:15:04.000Z,96793
2022-12-01T10:20:07.000Z,96793
2022-12-01T10:25:06.000Z,96783
2022-12-01T10:30:06.000Z,96783
2022-12-01T10:35:06.000Z,96782
2022-12-01T10:40:06.000Z,96783
2022-12-01T10:45:04.000Z,96775
2022-12-01T10:50:04.000Z,96774
2022-12-01T10:55:05.000Z,96767
2022-12-01T11:00:04.000Z,96774
2022-12-01T11:05:06.000Z,96770
2022-12-01T11:10:05.000Z,96773
2022-12-01T11:15:06.000Z,96776
2022-12-01T11:20:04.000Z,96776
2022-12-01T11:25:06.000Z,96770
2022-12-01T11:30:03.000Z,96762
2022-12-01T11:35:04.000Z,96762
2022-12-01T11:40:06.000Z,96761
2022-12-01T11:45:03.000Z,96758
2022-12-01T11:50:06.000Z,96761
2022-12-01T11:55:05.000Z,96746
2022-12-01T12:00:03.000Z,96743
2022-12-01T12:05:05.000Z,96744
2022-12-01T12:10:07.000Z,96745
2022-12-01T12:15:05.000Z,96743
2022-12-01T12:20:04.000Z,96747
2022-12-01T12:25:02.000Z,96746
2022-12-01T12:30:05.000Z,96744
2022-12-01T12:35:04.000Z,96746
2022-12-01T12:40:07.000Z,96751
2022-12-01T12:45:03.000Z,96744
2022-12-01T12:50:04.000Z,96732
2022-12-01T12:55:03.000Z,96731
2022-12-01T13:00:06.000Z,96730
2022-12-01T13:05:04.000Z,96726
2022-12-01T13:10:03.000Z,96731
2022-12-01T13:15:07.000Z,96735
2022-12-01T13:20:03.000Z,96726
2022-12-01T13:25:03.000Z,96725
2022-12-01T13:30:04.000Z,96722
2022-12-01T13:35:06.000Z,96716
2022-12-01T13:40:04.000Z,96718
2022-12-01T13:45:06.000Z,96709
2022-12-01T13:50:06.000Z,96717
2022-12-01T13:55:06.000Z,96721
2022-12-01T14:00:07.000Z,96714
2022-12-01T14:05:04.000Z,96707
2022-12-01T14:10:04.000Z,96709
2022-12-01T14:15:07.000Z,96716
2022-12-01T14:20:05.000Z,96719
2022-12-01T14:25:03.000Z,96726
2022-12-01T14:30:05.000Z,96730
2022-12-01T14:35:05.000Z,96721
2022-12-01T14:40:03.000Z,96720
2022-12-01T14:45:04.000Z,96714
2022-12-01T14:50:04.000Z,96718
2022-12-01T14:55:05.000Z,96722
2022-12-01T15:00:03.000Z,96721
2022-12-01T15:05:06.000Z,96714
2022-12-01T15:10:03.000Z,96727
2022-12-01T15:15:06.000Z,96727
2022-12-01T15:20:07.000Z,96725
2022-12-01T15:25:04.000Z,96719
2022-12-01T15:30:04.000Z,96722
2022-12-01T15:35:03.000Z,96721
2022-12-01T15:40:05.000Z,96723
2022-12-01T15:45:05.000Z,96720
2022-12-01T15:50:06.000Z,96725
2022-12-01T15:55:04.000Z,96720
2022-12-01T16:00:04.000Z,96719
2022-12-01T16:05:03.000Z,96718
2022-12-01T16:10:04.000Z,96728
2022-12-01T16:15:05.000Z,96721
2022-12-01T16:20:06.000Z,96728
2022-12-01T16:25:03.000Z,96723
2022-12-01T16:30:06.000Z,96732
2022-12-01T16:35:02.000Z,96729
2022-12-01T16:40:07.000Z,96723
2022-12-01T16:45:03.000Z,96729
2022-12-01T16:50:04.000Z,96732
2022-12-01T16:55:04.000Z,96727
2022-12-01T17:00:04.000Z,96731
2022-12-01T17:05:03.000Z,96734
2022-12-01T17:10:05.000Z,96739
2022-12-01T17:15:03.000Z,96722
2022-12-01T17:20:07.000Z,96725
2022-12-01T17:25:04.000Z,96733
2022-12-01T17:30:06.000Z,96726
2022-12-01T17:35:02.000Z,96735
2022-12-01T17:40:05.000Z,96721
2022-12-01T17:45:06.000Z,96731
2022-12-01T17:50:04.000Z,96730
2022-12-01T17:55:03.000Z,96727
2022-12-01T18:00:05.000Z,96730
2022-12-01T18:05:06.000Z,96731
2022-12-01T18:10:07.000Z,96737
2022-12-01T18:15:07.000Z,96734
2022-12-01T18:20:04.000Z,96732
2022-12-01T18:25:06.000Z,96740
2022-12-01T18:30:06.000Z,96743
2022-12-01T18:35:04.000Z,96744
2022-12-01T18:40:05.000Z,96732
2022-12-01T18:45:06.000Z,96729
2022-12-01T18:50:05.000Z,96729
2022-12-01T18:55:07.000Z,96731
2022-12-01T19:00:03.000Z,96728
2022-12-01T19:05:04.000Z,96727
2022-12-01T19:10:07.000Z,96718
2022-12-01T19:15:05.000Z,96722
2022-12-01T19:20:06.000Z,96721
2022-12-01T19:25:06.000Z,96728
2022-12-01T19:30:03.000Z,96730
2022-12-01T19:35:06.000Z,96720
2022-12-01T19:40:07.000Z,96726
2022-12-01T19:45:03.000Z,96725
2022-12-01T19:50:03.000Z,96725
2022-12-01T19:55:06.000Z,96732
2022-12-01T20:00:07.000Z,96740
2022-12-01T20:05:04.000Z,96741
2022-12-01T20:10:03.000Z,96729
2022-12-01T20:15:03.000Z,96734
2022-12-01T20:20:06.000Z,96731
2022-12-01T20:25:04.000Z,96729
2022-12-01T20:30:06.000Z,96738
2022-12-01T20:35:07.000Z,96734
2022-12-01T20:40:02.000Z,96735
2022-12-01T20:45:06.000Z,96732
2022-12-01T20:50:06.000Z,96731
2022-12-01T20:55:07.000Z,96736
2022-12-01T21:00:05.000Z,96734
2022-12-01T21:05:03.000Z,96732
2022-12-01T21:10:05.000Z,96718
2022-12-01T21:15:07.000Z,96721
2022-12-01T21:20:03.000Z,96735
2022-12-01T21:25:03.000Z,96729
2022-12-01T21:30:03.000Z,96730
2022-12-01T21:35:03.000Z,96721
2022-12-01T21:40:03.000Z,96729
2022-12-01T21:45:03.000Z,96727
2022-12-01T21:50:04.000Z,96721
2022-12-01T21:55:05.000Z,96710
2022-12-01T22:00:03.000Z,96707
2022-12-01T22:05:03.000Z,96705
2022-12-01T22:10:04.000Z,96706
2022-12-01T22:15:06.000Z,96703
2022-12-01T22:20:02.000Z,96703
2022-12-01T22:25:03.000Z,96702
2022-12-01T22:30:06.000Z,96697
2022-12-01T22:35:03.000Z,96700
2022-12-01T22:40:06.000Z,96701
2022-12-01T22:45:02.000Z,96705
2022-12-01T22:50:04.000Z,96698
2022-12-01T22:55:05.000Z,96700
2022-12-01T23:00:01.000Z,96694
2022-12-01T23:05:03.000Z,96691
2022-12-01T23:10:04.000Z,96683
2022-12-01T23:15:05.000Z,96694
2022-12-01T23:20:06.000Z,96684
2022-12-01T23:25:01.000Z,96697
2022-12-01T23:30:03.000Z,96687
2022-12-01T23:35:03.000Z,96685
2022-12-01T23:40:06.000Z,96689
2022-12-01T23:45:07.000Z,96676
2022-12-01T23:50:02.000Z,96670
2022-12-01T23:55:04.000Z,96666
